This is the latest recevied weather packets stored in our database for station/object AD4CG. If no packets are shown the sender has not sent any weather packets the latest 10 day(s).
| Time | Temp. | Humidity | Pressure | Rain* | Wind** | Luminosity | Snow |
|---|---|---|---|---|---|---|---|
| 1777196794 | 16.67° C | 100% | 1011.2 hPa | 0.25 mm | - | - | - |
| 1777195847 | 16.67° C | 100% | 1011.2 hPa | 0.25 mm | - | - | - |
| 1777195528 | 16.67° C | 100% | 1011.2 hPa | 0 mm | - | - | - |
| 1777193001 | 16.67° C | 100% | 1010.8 hPa | 0 mm | - | - | - |
| 1777190176 | 16.67° C | 100% | 1010.5 hPa | 0.25 mm | - | - | - |
| 1777189552 | 16.67° C | 100% | 1009.8 hPa | 0.25 mm | - | - | - |
| 1777186108 | 16.67° C | 100% | 1010.2 hPa | 0.25 mm | - | - | - |
| 1777185170 | 16.67° C | 100% | 1010.5 hPa | 0.25 mm | - | - | - |
| 1777181383 | 16.67° C | 100% | 1011.5 hPa | 1.02 mm | - | - | - |
| 1777177301 | 17.78° C | 100% | 1011.9 hPa | 0 mm | - | - | - |
| 1777171660 | 17.78° C | 100% | 1011.9 hPa | 0.25 mm | - | - | - |
| 1777169473 | 17.78° C | 100% | 1011.2 hPa | 1.27 mm | - | - | - |
| 1777168214 | 17.78° C | 100% | 1011.5 hPa | 1.27 mm | - | - | - |
| 1777167276 | 18.33° C | 100% | 1011.9 hPa | 1.02 mm | - | - | - |
| 1777163845 | 21.67° C | 77% | 1010.8 hPa | 0 mm | - | - | - |
| 1777158526 | 26.11° C | 42% | 1007.8 hPa | 0 mm | - | - | - |
| 1777157587 | 26.67° C | 43% | 1007.5 hPa | 0 mm | - | - | - |
| 1777153489 | 28.89° C | 2% | 1007.1 hPa | 0 mm | - | - | - |
| 1777147619 | 28.89° C | 2% | 1007.5 hPa | 0 mm | - | - | - |
| 1777146246 | 29.44° C | 2% | 1007.5 hPa | 0 mm | - | - | - |
| 1777144058 | 28.89° C | 1% | 1008.5 hPa | 0 mm | - | - | - |
| 1777141873 | 28.89° C | 1% | 1008.5 hPa | 0 mm | - | - | - |
| 1777140930 | 29.44° C | 1% | 1008.8 hPa | 0 mm | - | - | - |
| 1777139363 | 28.33° C | 9% | 1008.8 hPa | 0 mm | - | - | - |
| 1777134967 | 27.78° C | 17% | 1009.8 hPa | 0 mm | - | - | - |
* Rain latest hour (hover to see other rain measurements)
** Current wind speed in m/s (hover to see current wind gust speed)